sensor_id;sensor_type;location;lat;lon;timestamp;temperature;humidity
55711;DHT22;41612;51.994;5.880;2022-11-03T00:04:29;12.00;72.30
55711;DHT22;41612;51.994;5.880;2022-11-03T00:06:58;12.00;72.30
55711;DHT22;41612;51.994;5.880;2022-11-03T00:09:42;12.00;72.60
55711;DHT22;41612;51.994;5.880;2022-11-03T00:12:12;12.00;72.70
55711;DHT22;41612;51.994;5.880;2022-11-03T00:14:46;12.10;72.80
55711;DHT22;41612;51.994;5.880;2022-11-03T00:17:15;12.00;72.70
55711;DHT22;41612;51.994;5.880;2022-11-03T00:19:41;12.10;72.70
55711;DHT22;41612;51.994;5.880;2022-11-03T00:28:58;12.10;72.40
55711;DHT22;41612;51.994;5.880;2022-11-03T00:31:57;12.10;72.50
55711;DHT22;41612;51.994;5.880;2022-11-03T00:34:41;12.10;72.90
55711;DHT22;41612;51.994;5.880;2022-11-03T00:37:07;12.10;73.00
55711;DHT22;41612;51.994;5.880;2022-11-03T00:39:38;12.10;72.80
55711;DHT22;41612;51.994;5.880;2022-11-03T00:42:04;12.10;73.20
55711;DHT22;41612;51.994;5.880;2022-11-03T00:44:30;12.10;73.30
55711;DHT22;41612;51.994;5.880;2022-11-03T00:46:56;12.10;72.70
55711;DHT22;41612;51.994;5.880;2022-11-03T00:49:25;12.10;73.10
55711;DHT22;41612;51.994;5.880;2022-11-03T00:51:51;12.10;73.40
55711;DHT22;41612;51.994;5.880;2022-11-03T00:54:19;12.10;73.20
55711;DHT22;41612;51.994;5.880;2022-11-03T00:56:48;12.10;72.70
55711;DHT22;41612;51.994;5.880;2022-11-03T00:59:20;12.00;72.60
55711;DHT22;41612;51.994;5.880;2022-11-03T01:01:48;12.10;73.00
55711;DHT22;41612;51.994;5.880;2022-11-03T01:04:16;12.10;72.90
55711;DHT22;41612;51.994;5.880;2022-11-03T01:07:14;12.10;73.00
55711;DHT22;41612;51.994;5.880;2022-11-03T01:09:51;12.10;72.90
55711;DHT22;41612;51.994;5.880;2022-11-03T01:12:18;12.10;72.80
55711;DHT22;41612;51.994;5.880;2022-11-03T01:14:49;12.10;72.60
55711;DHT22;41612;51.994;5.880;2022-11-03T01:17:18;12.10;72.70
55711;DHT22;41612;51.994;5.880;2022-11-03T01:19:47;12.10;72.90
55711;DHT22;41612;51.994;5.880;2022-11-03T01:22:14;12.20;73.30
55711;DHT22;41612;51.994;5.880;2022-11-03T01:24:46;12.20;73.40
55711;DHT22;41612;51.994;5.880;2022-11-03T01:27:15;12.20;72.90
55711;DHT22;41612;51.994;5.880;2022-11-03T01:29:43;12.20;72.90
55711;DHT22;41612;51.994;5.880;2022-11-03T01:32:19;12.20;72.80
55711;DHT22;41612;51.994;5.880;2022-11-03T01:34:55;12.20;73.30
55711;DHT22;41612;51.994;5.880;2022-11-03T01:37:24;12.20;73.00
55711;DHT22;41612;51.994;5.880;2022-11-03T01:39:58;12.10;72.80
55711;DHT22;41612;51.994;5.880;2022-11-03T01:42:34;12.10;73.20
55711;DHT22;41612;51.994;5.880;2022-11-03T01:45:10;12.10;73.50
55711;DHT22;41612;51.994;5.880;2022-11-03T01:47:40;12.00;73.40
55711;DHT22;41612;51.994;5.880;2022-11-03T01:50:16;11.90;73.60
55711;DHT22;41612;51.994;5.880;2022-11-03T01:52:58;11.80;73.80
55711;DHT22;41612;51.994;5.880;2022-11-03T01:55:31;11.90;73.90
55711;DHT22;41612;51.994;5.880;2022-11-03T01:58:20;11.80;74.20
55711;DHT22;41612;51.994;5.880;2022-11-03T02:00:52;11.80;74.40
55711;DHT22;41612;51.994;5.880;2022-11-03T02:03:19;11.80;74.90
55711;DHT22;41612;51.994;5.880;2022-11-03T02:05:47;11.70;74.90
55711;DHT22;41612;51.994;5.880;2022-11-03T02:09:13;11.70;75.00
55711;DHT22;41612;51.994;5.880;2022-11-03T02:11:38;11.70;75.00
55711;DHT22;41612;51.994;5.880;2022-11-03T02:14:26;11.70;75.20
55711;DHT22;41612;51.994;5.880;2022-11-03T02:17:01;11.60;75.40
55711;DHT22;41612;51.994;5.880;2022-11-03T02:19:50;11.60;75.80
55711;DHT22;41612;51.994;5.880;2022-11-03T02:22:41;11.50;75.60
55711;DHT22;41612;51.994;5.880;2022-11-03T02:27:45;11.40;76.00
55711;DHT22;41612;51.994;5.880;2022-11-03T02:30:11;11.40;76.10
55711;DHT22;41612;51.994;5.880;2022-11-03T02:32:53;11.30;76.40
55711;DHT22;41612;51.994;5.880;2022-11-03T02:35:32;11.30;76.50
55711;DHT22;41612;51.994;5.880;2022-11-03T02:38:22;11.30;76.50
55711;DHT22;41612;51.994;5.880;2022-11-03T02:42:20;11.30;76.80
55711;DHT22;41612;51.994;5.880;2022-11-03T02:45:35;11.30;76.70
55711;DHT22;41612;51.994;5.880;2022-11-03T02:52:28;11.30;76.80
55711;DHT22;41612;51.994;5.880;2022-11-03T02:54:54;11.20;77.00
55711;DHT22;41612;51.994;5.880;2022-11-03T02:57:28;11.20;77.00
55711;DHT22;41612;51.994;5.880;2022-11-03T03:00:02;11.20;77.10
55711;DHT22;41612;51.994;5.880;2022-11-03T03:03:00;11.20;77.40
55711;DHT22;41612;51.994;5.880;2022-11-03T03:05:35;11.20;77.20
55711;DHT22;41612;51.994;5.880;2022-11-03T03:08:06;11.20;77.20
55711;DHT22;41612;51.994;5.880;2022-11-03T03:10:45;11.20;77.10
55711;DHT22;41612;51.994;5.880;2022-11-03T03:13:16;11.20;77.20
55711;DHT22;41612;51.994;5.880;2022-11-03T03:15:52;11.30;77.10
55711;DHT22;41612;51.994;5.880;2022-11-03T03:19:10;11.30;77.20
55711;DHT22;41612;51.994;5.880;2022-11-03T03:21:56;11.20;77.50
55711;DHT22;41612;51.994;5.880;2022-11-03T03:27:22;11.20;77.50
55711;DHT22;41612;51.994;5.880;2022-11-03T03:29:59;11.20;77.60
55711;DHT22;41612;51.994;5.880;2022-11-03T03:32:32;11.20;77.50
55711;DHT22;41612;51.994;5.880;2022-11-03T03:34:59;11.20;77.40
55711;DHT22;41612;51.994;5.880;2022-11-03T03:37:38;11.30;77.60
55711;DHT22;41612;51.994;5.880;2022-11-03T03:40:15;11.20;77.50
55711;DHT22;41612;51.994;5.880;2022-11-03T03:42:41;11.30;77.50
55711;DHT22;41612;51.994;5.880;2022-11-03T03:45:18;11.30;77.50
55711;DHT22;41612;51.994;5.880;2022-11-03T03:47:57;11.30;77.40
55711;DHT22;41612;51.994;5.880;2022-11-03T03:50:28;11.30;77.40
55711;DHT22;41612;51.994;5.880;2022-11-03T03:55:57;11.20;77.40
55711;DHT22;41612;51.994;5.880;2022-11-03T03:58:27;11.20;77.70
55711;DHT22;41612;51.994;5.880;2022-11-03T04:00:56;11.20;77.60
55711;DHT22;41612;51.994;5.880;2022-11-03T04:03:25;11.20;77.60
55711;DHT22;41612;51.994;5.880;2022-11-03T04:05:59;11.20;77.70
55711;DHT22;41612;51.994;5.880;2022-11-03T04:08:30;11.20;77.70
55711;DHT22;41612;51.994;5.880;2022-11-03T04:11:05;11.30;77.60
55711;DHT22;41612;51.994;5.880;2022-11-03T04:13:52;11.30;77.50
55711;DHT22;41612;51.994;5.880;2022-11-03T04:16:41;11.30;77.60
55711;DHT22;41612;51.994;5.880;2022-11-03T04:19:28;11.30;77.40
55711;DHT22;41612;51.994;5.880;2022-11-03T04:22:12;11.30;77.60
55711;DHT22;41612;51.994;5.880;2022-11-03T04:24:51;11.30;77.60
55711;DHT22;41612;51.994;5.880;2022-11-03T04:27:32;11.40;77.40
55711;DHT22;41612;51.994;5.880;2022-11-03T04:30:06;11.40;77.40
55711;DHT22;41612;51.994;5.880;2022-11-03T04:32:37;11.40;77.50
55711;DHT22;41612;51.994;5.880;2022-11-03T04:35:17;11.50;77.30
55711;DHT22;41612;51.994;5.880;2022-11-03T04:37:57;11.40;77.30
55711;DHT22;41612;51.994;5.880;2022-11-03T04:41:17;11.50;77.30
55711;DHT22;41612;51.994;5.880;2022-11-03T04:44:18;11.50;77.50
55711;DHT22;41612;51.994;5.880;2022-11-03T04:50:14;11.50;77.30
55711;DHT22;41612;51.994;5.880;2022-11-03T04:53:13;11.50;77.20
55711;DHT22;41612;51.994;5.880;2022-11-03T04:55:59;11.50;77.20
55711;DHT22;41612;51.994;5.880;2022-11-03T04:58:43;11.60;77.20
55711;DHT22;41612;51.994;5.880;2022-11-03T05:01:30;11.60;77.30
55711;DHT22;41612;51.994;5.880;2022-11-03T05:04:15;11.60;77.20
55711;DHT22;41612;51.994;5.880;2022-11-03T05:07:01;11.60;77.30
55711;DHT22;41612;51.994;5.880;2022-11-03T05:09:53;11.60;77.20
55711;DHT22;41612;51.994;5.880;2022-11-03T05:12:22;11.60;77.10
55711;DHT22;41612;51.994;5.880;2022-11-03T05:15:20;11.70;77.20
55711;DHT22;41612;51.994;5.880;2022-11-03T05:23:55;11.70;76.90
55711;DHT22;41612;51.994;5.880;2022-11-03T05:26:36;11.80;76.90
55711;DHT22;41612;51.994;5.880;2022-11-03T05:29:15;11.70;77.10
55711;DHT22;41612;51.994;5.880;2022-11-03T05:31:46;11.70;76.90
55711;DHT22;41612;51.994;5.880;2022-11-03T05:34:42;11.80;77.40
55711;DHT22;41612;51.994;5.880;2022-11-03T05:37:27;11.70;77.40
55711;DHT22;41612;51.994;5.880;2022-11-03T05:40:32;11.80;77.40
55711;DHT22;41612;51.994;5.880;2022-11-03T05:43:20;11.80;77.20
55711;DHT22;41612;51.994;5.880;2022-11-03T05:45:51;11.80;77.40
55711;DHT22;41612;51.994;5.880;2022-11-03T05:48:37;11.90;77.10
55711;DHT22;41612;51.994;5.880;2022-11-03T05:51:23;11.90;77.00
55711;DHT22;41612;51.994;5.880;2022-11-03T05:56:58;12.00;77.00
55711;DHT22;41612;51.994;5.880;2022-11-03T10:32:03;14.40;69.10
55711;DHT22;41612;51.994;5.880;2022-11-03T10:34:37;14.30;69.10
55711;DHT22;41612;51.994;5.880;2022-11-03T22:54:11;11.50;87.70
55711;DHT22;41612;51.994;5.880;2022-11-03T22:56:38;11.50;87.60
55711;DHT22;41612;51.994;5.880;2022-11-03T22:59:06;11.50;87.40
55711;DHT22;41612;51.994;5.880;2022-11-03T23:01:32;11.50;87.50
55711;DHT22;41612;51.994;5.880;2022-11-03T23:03:58;11.50;87.40
55711;DHT22;41612;51.994;5.880;2022-11-03T23:06:35;11.50;87.40
55711;DHT22;41612;51.994;5.880;2022-11-03T23:09:08;11.50;87.30
55711;DHT22;41612;51.994;5.880;2022-11-03T23:11:39;11.40;87.30
55711;DHT22;41612;51.994;5.880;2022-11-03T23:14:10;11.50;87.30
55711;DHT22;41612;51.994;5.880;2022-11-03T23:16:42;11.50;87.60
55711;DHT22;41612;51.994;5.880;2022-11-03T23:19:12;11.40;87.40
55711;DHT22;41612;51.994;5.880;2022-11-03T23:21:57;11.50;87.40
55711;DHT22;41612;51.994;5.880;2022-11-03T23:24:23;11.40;87.30
55711;DHT22;41612;51.994;5.880;2022-11-03T23:27:09;11.40;87.10
55711;DHT22;41612;51.994;5.880;2022-11-03T23:30:00;11.50;86.80
55711;DHT22;41612;51.994;5.880;2022-11-03T23:32:25;11.50;86.60
55711;DHT22;41612;51.994;5.880;2022-11-03T23:34:50;11.50;86.90
55711;DHT22;41612;51.994;5.880;2022-11-03T23:37:16;11.40;86.50
55711;DHT22;41612;51.994;5.880;2022-11-03T23:39:42;11.40;86.70
55711;DHT22;41612;51.994;5.880;2022-11-03T23:42:08;11.40;86.70
55711;DHT22;41612;51.994;5.880;2022-11-03T23:44:33;11.50;86.70
55711;DHT22;41612;51.994;5.880;2022-11-03T23:47:19;11.50;87.00
55711;DHT22;41612;51.994;5.880;2022-11-03T23:50:03;11.50;87.00
55711;DHT22;41612;51.994;5.880;2022-11-03T23:52:29;11.50;86.20
55711;DHT22;41612;51.994;5.880;2022-11-03T23:55:22;11.50;86.70
55711;DHT22;41612;51.994;5.880;2022-11-03T23:57:47;11.50;86.70
